sensor_id;sensor_type;location;lat;lon;timestamp;P1;durP1;ratioP1;P2;durP2;ratioP2
5937;SDS011;2994;51.220;4.412;2023-04-29T00:02:06;30.53;;;21.00;;
5937;SDS011;2994;51.220;4.412;2023-04-29T00:04:32;37.67;;;22.03;;
5937;SDS011;2994;51.220;4.412;2023-04-29T00:06:57;30.00;;;20.53;;
5937;SDS011;2994;51.220;4.412;2023-04-29T00:09:23;30.77;;;21.90;;
5937;SDS011;2994;51.220;4.412;2023-04-29T00:11:48;22.93;;;17.83;;
5937;SDS011;2994;51.220;4.412;2023-04-29T00:14:14;24.03;;;19.77;;
5937;SDS011;2994;51.220;4.412;2023-04-29T00:16:40;26.30;;;18.57;;
5937;SDS011;2994;51.220;4.412;2023-04-29T00:19:05;27.67;;;18.50;;
5937;SDS011;2994;51.220;4.412;2023-04-29T00:21:31;25.93;;;20.27;;
5937;SDS011;2994;51.220;4.412;2023-04-29T00:23:57;26.07;;;19.27;;
5937;SDS011;2994;51.220;4.412;2023-04-29T00:26:22;28.53;;;19.70;;
5937;SDS011;2994;51.220;4.412;2023-04-29T00:28:48;26.93;;;19.17;;
5937;SDS011;2994;51.220;4.412;2023-04-29T00:31:13;28.40;;;19.90;;
5937;SDS011;2994;51.220;4.412;2023-04-29T00:33:39;24.47;;;19.00;;
5937;SDS011;2994;51.220;4.412;2023-04-29T00:36:05;22.50;;;17.47;;
5937;SDS011;2994;51.220;4.412;2023-04-29T00:38:31;23.13;;;20.30;;
5937;SDS011;2994;51.220;4.412;2023-04-29T00:40:56;28.03;;;21.97;;
5937;SDS011;2994;51.220;4.412;2023-04-29T00:43:22;28.57;;;20.73;;
5937;SDS011;2994;51.220;4.412;2023-04-29T00:45:48;27.27;;;20.80;;
5937;SDS011;2994;51.220;4.412;2023-04-29T00:48:14;29.90;;;19.70;;
5937;SDS011;2994;51.220;4.412;2023-04-29T00:50:40;22.10;;;17.50;;
5937;SDS011;2994;51.220;4.412;2023-04-29T00:53:06;23.80;;;18.80;;
5937;SDS011;2994;51.220;4.412;2023-04-29T00:55:32;23.57;;;17.87;;
5937;SDS011;2994;51.220;4.412;2023-04-29T00:57:59;20.93;;;15.27;;
5937;SDS011;2994;51.220;4.412;2023-04-29T01:00:26;18.50;;;15.77;;
5937;SDS011;2994;51.220;4.412;2023-04-29T01:02:52;17.67;;;14.60;;
5937;SDS011;2994;51.220;4.412;2023-04-29T01:05:21;20.63;;;15.80;;
5937;SDS011;2994;51.220;4.412;2023-04-29T01:07:55;18.90;;;14.07;;
5937;SDS011;2994;51.220;4.412;2023-04-29T01:10:28;22.40;;;16.20;;
5937;SDS011;2994;51.220;4.412;2023-04-29T01:13:13;24.03;;;17.80;;
5937;SDS011;2994;51.220;4.412;2023-04-29T01:15:47;21.77;;;17.40;;
5937;SDS011;2994;51.220;4.412;2023-04-29T01:18:23;19.23;;;14.63;;
5937;SDS011;2994;51.220;4.412;2023-04-29T01:20:52;19.50;;;14.80;;
5937;SDS011;2994;51.220;4.412;2023-04-29T01:23:17;18.17;;;14.40;;
5937;SDS011;2994;51.220;4.412;2023-04-29T01:25:43;19.77;;;14.10;;
5937;SDS011;2994;51.220;4.412;2023-04-29T01:30:46;15.13;;;13.50;;
5937;SDS011;2994;51.220;4.412;2023-04-29T01:36:07;13.27;;;11.77;;
5937;SDS011;2994;51.220;4.412;2023-04-29T01:41:15;18.30;;;13.47;;
5937;SDS011;2994;51.220;4.412;2023-04-29T01:43:49;17.60;;;13.40;;
5937;SDS011;2994;51.220;4.412;2023-04-29T01:46:16;15.93;;;13.53;;
5937;SDS011;2994;51.220;4.412;2023-04-29T01:48:43;15.10;;;13.30;;
5937;SDS011;2994;51.220;4.412;2023-04-29T01:51:09;19.77;;;13.90;;
5937;SDS011;2994;51.220;4.412;2023-04-29T01:53:35;20.03;;;13.80;;
5937;SDS011;2994;51.220;4.412;2023-04-29T01:56:00;17.00;;;14.13;;
5937;SDS011;2994;51.220;4.412;2023-04-29T01:58:26;17.07;;;14.40;;
5937;SDS011;2994;51.220;4.412;2023-04-29T02:00:52;20.73;;;14.23;;
5937;SDS011;2994;51.220;4.412;2023-04-29T02:03:18;17.20;;;12.43;;
5937;SDS011;2994;51.220;4.412;2023-04-29T02:05:44;18.60;;;13.77;;
5937;SDS011;2994;51.220;4.412;2023-04-29T02:08:09;16.47;;;12.57;;
5937;SDS011;2994;51.220;4.412;2023-04-29T02:10:35;17.20;;;13.80;;
5937;SDS011;2994;51.220;4.412;2023-04-29T02:13:00;22.20;;;16.23;;
5937;SDS011;2994;51.220;4.412;2023-04-29T02:15:26;24.40;;;17.57;;
5937;SDS011;2994;51.220;4.412;2023-04-29T02:17:53;24.90;;;18.73;;
5937;SDS011;2994;51.220;4.412;2023-04-29T02:20:18;27.70;;;19.67;;
5937;SDS011;2994;51.220;4.412;2023-04-29T02:22:44;28.97;;;19.93;;
5937;SDS011;2994;51.220;4.412;2023-04-29T02:25:10;29.93;;;20.33;;
5937;SDS011;2994;51.220;4.412;2023-04-29T02:27:36;31.10;;;20.67;;
5937;SDS011;2994;51.220;4.412;2023-04-29T02:30:01;30.27;;;22.13;;
5937;SDS011;2994;51.220;4.412;2023-04-29T02:32:28;28.87;;;21.00;;
5937;SDS011;2994;51.220;4.412;2023-04-29T02:34:54;29.27;;;21.37;;
5937;SDS011;2994;51.220;4.412;2023-04-29T02:37:20;31.80;;;20.67;;
5937;SDS011;2994;51.220;4.412;2023-04-29T02:39:45;30.90;;;22.40;;
5937;SDS011;2994;51.220;4.412;2023-04-29T02:42:11;34.17;;;22.37;;
5937;SDS011;2994;51.220;4.412;2023-04-29T02:44:37;27.63;;;21.40;;
5937;SDS011;2994;51.220;4.412;2023-04-29T02:47:02;37.87;;;23.07;;
5937;SDS011;2994;51.220;4.412;2023-04-29T02:49:28;35.17;;;24.07;;
5937;SDS011;2994;51.220;4.412;2023-04-29T02:51:53;32.07;;;23.13;;
5937;SDS011;2994;51.220;4.412;2023-04-29T02:54:19;32.07;;;23.23;;
5937;SDS011;2994;51.220;4.412;2023-04-29T02:56:45;33.93;;;23.10;;
5937;SDS011;2994;51.220;4.412;2023-04-29T02:59:11;37.23;;;23.70;;
5937;SDS011;2994;51.220;4.412;2023-04-29T03:01:36;32.97;;;23.50;;
5937;SDS011;2994;51.220;4.412;2023-04-29T03:04:02;33.13;;;23.50;;
5937;SDS011;2994;51.220;4.412;2023-04-29T03:06:28;32.30;;;23.57;;
5937;SDS011;2994;51.220;4.412;2023-04-29T03:08:54;27.50;;;21.17;;
5937;SDS011;2994;51.220;4.412;2023-04-29T03:11:20;31.50;;;22.40;;
5937;SDS011;2994;51.220;4.412;2023-04-29T03:13:48;28.00;;;21.27;;
5937;SDS011;2994;51.220;4.412;2023-04-29T03:16:14;34.80;;;23.70;;
5937;SDS011;2994;51.220;4.412;2023-04-29T03:18:41;36.67;;;21.97;;
5937;SDS011;2994;51.220;4.412;2023-04-29T03:21:07;27.00;;;19.93;;
5937;SDS011;2994;51.220;4.412;2023-04-29T03:23:32;35.20;;;24.27;;
5937;SDS011;2994;51.220;4.412;2023-04-29T03:25:57;32.43;;;23.30;;
5937;SDS011;2994;51.220;4.412;2023-04-29T03:28:24;29.40;;;22.70;;
5937;SDS011;2994;51.220;4.412;2023-04-29T03:30:50;32.60;;;21.77;;
5937;SDS011;2994;51.220;4.412;2023-04-29T03:33:15;30.60;;;22.83;;
5937;SDS011;2994;51.220;4.412;2023-04-29T03:35:41;28.37;;;21.17;;
5937;SDS011;2994;51.220;4.412;2023-04-29T03:38:06;26.03;;;20.83;;
5937;SDS011;2994;51.220;4.412;2023-04-29T03:40:32;31.37;;;22.80;;
5937;SDS011;2994;51.220;4.412;2023-04-29T03:42:57;31.90;;;22.07;;
5937;SDS011;2994;51.220;4.412;2023-04-29T03:45:24;30.57;;;22.87;;
5937;SDS011;2994;51.220;4.412;2023-04-29T03:47:50;30.40;;;21.97;;
5937;SDS011;2994;51.220;4.412;2023-04-29T03:50:17;28.77;;;20.20;;
5937;SDS011;2994;51.220;4.412;2023-04-29T03:52:43;34.37;;;20.83;;
5937;SDS011;2994;51.220;4.412;2023-04-29T03:55:08;28.33;;;20.80;;
5937;SDS011;2994;51.220;4.412;2023-04-29T03:57:34;22.27;;;19.40;;
5937;SDS011;2994;51.220;4.412;2023-04-29T03:59:59;24.43;;;17.80;;
5937;SDS011;2994;51.220;4.412;2023-04-29T04:02:25;24.57;;;19.60;;
5937;SDS011;2994;51.220;4.412;2023-04-29T04:04:50;24.47;;;19.27;;
5937;SDS011;2994;51.220;4.412;2023-04-29T04:07:16;25.30;;;19.50;;
5937;SDS011;2994;51.220;4.412;2023-04-29T04:09:41;23.33;;;19.67;;
5937;SDS011;2994;51.220;4.412;2023-04-29T04:12:07;25.13;;;18.17;;
5937;SDS011;2994;51.220;4.412;2023-04-29T04:14:32;23.83;;;18.30;;
5937;SDS011;2994;51.220;4.412;2023-04-29T04:17:00;28.07;;;19.27;;
5937;SDS011;2994;51.220;4.412;2023-04-29T04:19:26;34.00;;;22.13;;
5937;SDS011;2994;51.220;4.412;2023-04-29T04:21:53;26.37;;;20.70;;
5937;SDS011;2994;51.220;4.412;2023-04-29T04:24:19;23.23;;;19.23;;
5937;SDS011;2994;51.220;4.412;2023-04-29T04:26:44;23.80;;;19.23;;
5937;SDS011;2994;51.220;4.412;2023-04-29T04:29:10;26.57;;;20.43;;
5937;SDS011;2994;51.220;4.412;2023-04-29T04:31:35;24.10;;;19.83;;
5937;SDS011;2994;51.220;4.412;2023-04-29T04:34:02;23.50;;;18.50;;
5937;SDS011;2994;51.220;4.412;2023-04-29T04:36:27;23.90;;;18.10;;
5937;SDS011;2994;51.220;4.412;2023-04-29T04:38:53;23.30;;;17.43;;
5937;SDS011;2994;51.220;4.412;2023-04-29T04:41:18;22.73;;;17.70;;
5937;SDS011;2994;51.220;4.412;2023-04-29T04:43:44;22.47;;;18.00;;
5937;SDS011;2994;51.220;4.412;2023-04-29T04:46:12;24.03;;;18.47;;
5937;SDS011;2994;51.220;4.412;2023-04-29T04:48:39;19.50;;;17.27;;
5937;SDS011;2994;51.220;4.412;2023-04-29T04:51:09;21.83;;;16.20;;
5937;SDS011;2994;51.220;4.412;2023-04-29T04:53:35;19.77;;;15.63;;
5937;SDS011;2994;51.220;4.412;2023-04-29T04:56:01;18.90;;;16.73;;
5937;SDS011;2994;51.220;4.412;2023-04-29T04:58:27;20.73;;;16.53;;
5937;SDS011;2994;51.220;4.412;2023-04-29T05:00:52;19.63;;;16.80;;
5937;SDS011;2994;51.220;4.412;2023-04-29T05:03:18;20.80;;;16.40;;
5937;SDS011;2994;51.220;4.412;2023-04-29T05:05:43;18.73;;;16.07;;
5937;SDS011;2994;51.220;4.412;2023-04-29T05:08:09;21.30;;;17.57;;
5937;SDS011;2994;51.220;4.412;2023-04-29T05:10:35;25.43;;;20.77;;
5937;SDS011;2994;51.220;4.412;2023-04-29T05:13:01;22.87;;;18.10;;
5937;SDS011;2994;51.220;4.412;2023-04-29T05:15:26;23.50;;;19.93;;
5937;SDS011;2994;51.220;4.412;2023-04-29T05:17:52;24.60;;;19.70;;
5937;SDS011;2994;51.220;4.412;2023-04-29T05:20:17;24.73;;;18.00;;
5937;SDS011;2994;51.220;4.412;2023-04-29T05:22:44;23.80;;;19.13;;
5937;SDS011;2994;51.220;4.412;2023-04-29T05:25:09;22.07;;;18.40;;
5937;SDS011;2994;51.220;4.412;2023-04-29T05:27:35;22.90;;;19.17;;
5937;SDS011;2994;51.220;4.412;2023-04-29T05:30:00;23.00;;;18.37;;
5937;SDS011;2994;51.220;4.412;2023-04-29T05:32:26;28.20;;;19.67;;
5937;SDS011;2994;51.220;4.412;2023-04-29T05:34:51;22.63;;;18.30;;
5937;SDS011;2994;51.220;4.412;2023-04-29T05:37:17;26.90;;;21.60;;
5937;SDS011;2994;51.220;4.412;2023-04-29T05:39:42;31.60;;;22.50;;
5937;SDS011;2994;51.220;4.412;2023-04-29T05:42:08;26.23;;;19.77;;
5937;SDS011;2994;51.220;4.412;2023-04-29T05:44:33;24.17;;;21.13;;
5937;SDS011;2994;51.220;4.412;2023-04-29T05:46:59;26.30;;;21.27;;
5937;SDS011;2994;51.220;4.412;2023-04-29T05:49:24;24.10;;;20.63;;
5937;SDS011;2994;51.220;4.412;2023-04-29T05:51:50;27.43;;;21.53;;
5937;SDS011;2994;51.220;4.412;2023-04-29T05:54:15;23.07;;;19.37;;
5937;SDS011;2994;51.220;4.412;2023-04-29T05:56:41;26.23;;;22.10;;
5937;SDS011;2994;51.220;4.412;2023-04-29T05:59:06;29.87;;;22.87;;
5937;SDS011;2994;51.220;4.412;2023-04-29T06:01:32;28.03;;;22.53;;
5937;SDS011;2994;51.220;4.412;2023-04-29T06:03:57;29.07;;;22.27;;
5937;SDS011;2994;51.220;4.412;2023-04-29T06:06:23;29.33;;;21.43;;
5937;SDS011;2994;51.220;4.412;2023-04-29T06:08:49;26.20;;;20.13;;
5937;SDS011;2994;51.220;4.412;2023-04-29T06:11:15;26.00;;;21.87;;
5937;SDS011;2994;51.220;4.412;2023-04-29T06:13:40;26.43;;;20.47;;
5937;SDS011;2994;51.220;4.412;2023-04-29T06:16:06;33.50;;;24.07;;
5937;SDS011;2994;51.220;4.412;2023-04-29T06:18:32;31.83;;;21.67;;
5937;SDS011;2994;51.220;4.412;2023-04-29T06:20:58;25.47;;;20.23;;
5937;SDS011;2994;51.220;4.412;2023-04-29T06:23:23;26.13;;;20.47;;
5937;SDS011;2994;51.220;4.412;2023-04-29T06:25:49;28.03;;;21.77;;
5937;SDS011;2994;51.220;4.412;2023-04-29T06:28:15;24.53;;;20.33;;
5937;SDS011;2994;51.220;4.412;2023-04-29T06:30:40;25.40;;;20.77;;
5937;SDS011;2994;51.220;4.412;2023-04-29T06:33:06;23.17;;;18.83;;
5937;SDS011;2994;51.220;4.412;2023-04-29T06:35:32;21.20;;;18.60;;
5937;SDS011;2994;51.220;4.412;2023-04-29T06:37:57;23.20;;;17.90;;
5937;SDS011;2994;51.220;4.412;2023-04-29T06:40:23;25.73;;;19.40;;
5937;SDS011;2994;51.220;4.412;2023-04-29T06:42:48;24.57;;;17.87;;
5937;SDS011;2994;51.220;4.412;2023-04-29T06:45:16;25.50;;;19.47;;
5937;SDS011;2994;51.220;4.412;2023-04-29T06:47:41;23.60;;;18.30;;
5937;SDS011;2994;51.220;4.412;2023-04-29T06:50:08;22.67;;;19.03;;
5937;SDS011;2994;51.220;4.412;2023-04-29T06:52:34;22.13;;;17.67;;
5937;SDS011;2994;51.220;4.412;2023-04-29T06:54:59;23.30;;;19.23;;
5937;SDS011;2994;51.220;4.412;2023-04-29T06:57:24;21.60;;;18.30;;
5937;SDS011;2994;51.220;4.412;2023-04-29T06:59:51;23.43;;;20.90;;
5937;SDS011;2994;51.220;4.412;2023-04-29T07:02:16;22.30;;;17.53;;
5937;SDS011;2994;51.220;4.412;2023-04-29T07:04:42;23.60;;;18.07;;
5937;SDS011;2994;51.220;4.412;2023-04-29T07:07:07;21.77;;;17.10;;
5937;SDS011;2994;51.220;4.412;2023-04-29T07:09:33;23.67;;;18.50;;
5937;SDS011;2994;51.220;4.412;2023-04-29T07:11:58;20.10;;;16.03;;
5937;SDS011;2994;51.220;4.412;2023-04-29T07:14:24;21.30;;;15.40;;
5937;SDS011;2994;51.220;4.412;2023-04-29T07:16:53;21.83;;;15.80;;
5937;SDS011;2994;51.220;4.412;2023-04-29T07:19:19;25.10;;;18.03;;
5937;SDS011;2994;51.220;4.412;2023-04-29T07:21:44;19.80;;;14.70;;
5937;SDS011;2994;51.220;4.412;2023-04-29T07:24:10;19.17;;;15.83;;
5937;SDS011;2994;51.220;4.412;2023-04-29T07:26:35;23.93;;;15.60;;
5937;SDS011;2994;51.220;4.412;2023-04-29T07:29:01;17.50;;;15.03;;
5937;SDS011;2994;51.220;4.412;2023-04-29T07:31:27;19.47;;;14.47;;
5937;SDS011;2994;51.220;4.412;2023-04-29T07:33:53;20.73;;;15.37;;
5937;SDS011;2994;51.220;4.412;2023-04-29T07:36:19;20.17;;;14.83;;
5937;SDS011;2994;51.220;4.412;2023-04-29T07:38:44;16.70;;;13.67;;
5937;SDS011;2994;51.220;4.412;2023-04-29T07:41:10;18.03;;;13.87;;
5937;SDS011;2994;51.220;4.412;2023-04-29T07:43:35;18.93;;;14.10;;
5937;SDS011;2994;51.220;4.412;2023-04-29T07:46:01;18.10;;;14.00;;
5937;SDS011;2994;51.220;4.412;2023-04-29T07:48:26;19.40;;;15.30;;
5937;SDS011;2994;51.220;4.412;2023-04-29T07:50:52;17.93;;;14.80;;
5937;SDS011;2994;51.220;4.412;2023-04-29T07:53:18;17.30;;;13.40;;
5937;SDS011;2994;51.220;4.412;2023-04-29T07:55:44;19.90;;;15.00;;
5937;SDS011;2994;51.220;4.412;2023-04-29T07:58:09;17.20;;;14.30;;
5937;SDS011;2994;51.220;4.412;2023-04-29T08:00:35;17.10;;;13.80;;
5937;SDS011;2994;51.220;4.412;2023-04-29T08:03:00;17.57;;;14.53;;
5937;SDS011;2994;51.220;4.412;2023-04-29T08:05:26;22.63;;;16.60;;
5937;SDS011;2994;51.220;4.412;2023-04-29T08:07:51;16.97;;;13.30;;
5937;SDS011;2994;51.220;4.412;2023-04-29T08:10:17;15.13;;;11.80;;
5937;SDS011;2994;51.220;4.412;2023-04-29T08:12:47;18.07;;;13.80;;
5937;SDS011;2994;51.220;4.412;2023-04-29T08:15:13;16.30;;;14.33;;
5937;SDS011;2994;51.220;4.412;2023-04-29T08:17:39;17.77;;;13.40;;
5937;SDS011;2994;51.220;4.412;2023-04-29T08:20:05;24.30;;;13.70;;
5937;SDS011;2994;51.220;4.412;2023-04-29T08:22:32;18.40;;;14.47;;
5937;SDS011;2994;51.220;4.412;2023-04-29T08:24:57;17.47;;;13.00;;
5937;SDS011;2994;51.220;4.412;2023-04-29T08:27:23;20.10;;;14.20;;
5937;SDS011;2994;51.220;4.412;2023-04-29T08:29:48;20.23;;;14.10;;
5937;SDS011;2994;51.220;4.412;2023-04-29T08:32:14;19.07;;;13.90;;
5937;SDS011;2994;51.220;4.412;2023-04-29T08:34:39;18.80;;;14.30;;
5937;SDS011;2994;51.220;4.412;2023-04-29T08:37:05;17.40;;;13.80;;
5937;SDS011;2994;51.220;4.412;2023-04-29T08:39:31;17.23;;;12.80;;
5937;SDS011;2994;51.220;4.412;2023-04-29T08:41:57;20.70;;;14.50;;
5937;SDS011;2994;51.220;4.412;2023-04-29T08:44:24;21.60;;;12.97;;
5937;SDS011;2994;51.220;4.412;2023-04-29T08:46:50;23.10;;;13.70;;
5937;SDS011;2994;51.220;4.412;2023-04-29T08:49:16;15.10;;;11.53;;
5937;SDS011;2994;51.220;4.412;2023-04-29T08:51:42;14.20;;;11.93;;
5937;SDS011;2994;51.220;4.412;2023-04-29T08:54:08;15.03;;;12.03;;
5937;SDS011;2994;51.220;4.412;2023-04-29T08:56:34;13.40;;;12.00;;
5937;SDS011;2994;51.220;4.412;2023-04-29T08:59:01;16.07;;;12.73;;
5937;SDS011;2994;51.220;4.412;2023-04-29T09:01:28;13.20;;;11.80;;
5937;SDS011;2994;51.220;4.412;2023-04-29T09:06:31;15.50;;;13.40;;
5937;SDS011;2994;51.220;4.412;2023-04-29T09:08:58;12.83;;;10.90;;
5937;SDS011;2994;51.220;4.412;2023-04-29T09:11:26;14.23;;;12.43;;
5937;SDS011;2994;51.220;4.412;2023-04-29T09:13:53;15.40;;;11.83;;
5937;SDS011;2994;51.220;4.412;2023-04-29T09:16:26;15.20;;;11.80;;
5937;SDS011;2994;51.220;4.412;2023-04-29T09:18:53;18.30;;;13.57;;
5937;SDS011;2994;51.220;4.412;2023-04-29T09:23:46;14.50;;;12.37;;
5937;SDS011;2994;51.220;4.412;2023-04-29T09:26:14;14.70;;;12.10;;
5937;SDS011;2994;51.220;4.412;2023-04-29T09:28:40;14.30;;;12.80;;
5937;SDS011;2994;51.220;4.412;2023-04-29T09:31:08;14.70;;;12.13;;
5937;SDS011;2994;51.220;4.412;2023-04-29T09:33:53;14.10;;;12.07;;
5937;SDS011;2994;51.220;4.412;2023-04-29T09:39:10;12.20;;;9.87;;
5937;SDS011;2994;51.220;4.412;2023-04-29T09:44:18;12.37;;;10.87;;
5937;SDS011;2994;51.220;4.412;2023-04-29T09:46:58;11.60;;;10.30;;
5937;SDS011;2994;51.220;4.412;2023-04-29T09:49:38;12.33;;;9.70;;
5937;SDS011;2994;51.220;4.412;2023-04-29T09:52:12;17.73;;;11.13;;
5937;SDS011;2994;51.220;4.412;2023-04-29T09:54:40;12.17;;;10.30;;
5937;SDS011;2994;51.220;4.412;2023-04-29T09:57:07;12.40;;;10.10;;
5937;SDS011;2994;51.220;4.412;2023-04-29T09:59:35;12.13;;;9.70;;
5937;SDS011;2994;51.220;4.412;2023-04-29T10:02:15;12.10;;;10.90;;
5937;SDS011;2994;51.220;4.412;2023-04-29T10:04:45;9.80;;;8.80;;
5937;SDS011;2994;51.220;4.412;2023-04-29T10:07:15;12.20;;;10.20;;
5937;SDS011;2994;51.220;4.412;2023-04-29T10:09:43;13.10;;;11.40;;
5937;SDS011;2994;51.220;4.412;2023-04-29T10:12:10;15.93;;;11.40;;
5937;SDS011;2994;51.220;4.412;2023-04-29T10:14:44;13.20;;;11.50;;
5937;SDS011;2994;51.220;4.412;2023-04-29T10:17:42;11.07;;;9.87;;
5937;SDS011;2994;51.220;4.412;2023-04-29T10:20:13;11.63;;;10.23;;
5937;SDS011;2994;51.220;4.412;2023-04-29T10:22:45;17.17;;;12.50;;
5937;SDS011;2994;51.220;4.412;2023-04-29T10:25:15;11.50;;;9.90;;
5937;SDS011;2994;51.220;4.412;2023-04-29T10:27:42;12.27;;;9.93;;
5937;SDS011;2994;51.220;4.412;2023-04-29T10:30:12;12.97;;;10.40;;
5937;SDS011;2994;51.220;4.412;2023-04-29T10:32:39;12.87;;;11.10;;
5937;SDS011;2994;51.220;4.412;2023-04-29T10:35:11;12.40;;;11.10;;
5937;SDS011;2994;51.220;4.412;2023-04-29T10:37:38;12.13;;;10.77;;
5937;SDS011;2994;51.220;4.412;2023-04-29T10:40:08;15.20;;;10.50;;
5937;SDS011;2994;51.220;4.412;2023-04-29T10:42:44;14.00;;;11.50;;
5937;SDS011;2994;51.220;4.412;2023-04-29T10:45:21;12.20;;;9.73;;
5937;SDS011;2994;51.220;4.412;2023-04-29T10:50:27;10.47;;;9.30;;
5937;SDS011;2994;51.220;4.412;2023-04-29T10:53:01;11.13;;;8.87;;
5937;SDS011;2994;51.220;4.412;2023-04-29T10:55:27;10.60;;;9.50;;
5937;SDS011;2994;51.220;4.412;2023-04-29T10:57:53;12.50;;;11.20;;
5937;SDS011;2994;51.220;4.412;2023-04-29T11:02:58;13.37;;;11.00;;
5937;SDS011;2994;51.220;4.412;2023-04-29T11:10:54;13.20;;;10.53;;
5937;SDS011;2994;51.220;4.412;2023-04-29T11:13:29;9.13;;;8.20;;
5937;SDS011;2994;51.220;4.412;2023-04-29T11:16:04;10.43;;;8.57;;
5937;SDS011;2994;51.220;4.412;2023-04-29T11:18:31;8.90;;;7.57;;
5937;SDS011;2994;51.220;4.412;2023-04-29T11:23:28;8.90;;;7.30;;
5937;SDS011;2994;51.220;4.412;2023-04-29T11:25:54;9.50;;;8.07;;
5937;SDS011;2994;51.220;4.412;2023-04-29T11:28:20;8.70;;;7.63;;
5937;SDS011;2994;51.220;4.412;2023-04-29T11:30:48;9.97;;;7.97;;
5937;SDS011;2994;51.220;4.412;2023-04-29T11:33:15;8.00;;;7.20;;
5937;SDS011;2994;51.220;4.412;2023-04-29T11:35:41;11.13;;;8.10;;
5937;SDS011;2994;51.220;4.412;2023-04-29T11:38:08;11.30;;;8.00;;
5937;SDS011;2994;51.220;4.412;2023-04-29T11:40:33;8.57;;;7.73;;
5937;SDS011;2994;51.220;4.412;2023-04-29T11:42:59;10.00;;;8.17;;
5937;SDS011;2994;51.220;4.412;2023-04-29T11:45:24;9.80;;;8.13;;
5937;SDS011;2994;51.220;4.412;2023-04-29T11:47:50;10.23;;;8.37;;
5937;SDS011;2994;51.220;4.412;2023-04-29T11:50:16;9.37;;;8.30;;
5937;SDS011;2994;51.220;4.412;2023-04-29T11:52:44;9.67;;;8.67;;
5937;SDS011;2994;51.220;4.412;2023-04-29T11:55:11;8.57;;;7.77;;
5937;SDS011;2994;51.220;4.412;2023-04-29T11:57:37;10.57;;;8.73;;
5937;SDS011;2994;51.220;4.412;2023-04-29T12:00:09;9.83;;;8.00;;
5937;SDS011;2994;51.220;4.412;2023-04-29T12:02:38;9.47;;;8.30;;
5937;SDS011;2994;51.220;4.412;2023-04-29T12:05:07;9.20;;;8.33;;
5937;SDS011;2994;51.220;4.412;2023-04-29T12:07:38;9.20;;;7.73;;
5937;SDS011;2994;51.220;4.412;2023-04-29T12:10:07;8.43;;;7.50;;
5937;SDS011;2994;51.220;4.412;2023-04-29T12:12:34;10.23;;;8.37;;
5937;SDS011;2994;51.220;4.412;2023-04-29T12:15:00;14.23;;;8.40;;
5937;SDS011;2994;51.220;4.412;2023-04-29T12:17:27;9.23;;;8.30;;
5937;SDS011;2994;51.220;4.412;2023-04-29T12:19:53;8.70;;;7.20;;
5937;SDS011;2994;51.220;4.412;2023-04-29T12:22:19;8.80;;;7.13;;
5937;SDS011;2994;51.220;4.412;2023-04-29T12:24:44;8.10;;;6.90;;
5937;SDS011;2994;51.220;4.412;2023-04-29T12:27:11;6.93;;;6.30;;
5937;SDS011;2994;51.220;4.412;2023-04-29T12:29:37;8.03;;;7.33;;
5937;SDS011;2994;51.220;4.412;2023-04-29T12:32:04;7.90;;;7.10;;
5937;SDS011;2994;51.220;4.412;2023-04-29T12:34:30;7.10;;;6.37;;
5937;SDS011;2994;51.220;4.412;2023-04-29T12:36:59;10.20;;;9.17;;
5937;SDS011;2994;51.220;4.412;2023-04-29T12:39:26;8.20;;;7.33;;
5937;SDS011;2994;51.220;4.412;2023-04-29T12:41:58;9.27;;;7.43;;
5937;SDS011;2994;51.220;4.412;2023-04-29T12:44:24;9.13;;;8.23;;
5937;SDS011;2994;51.220;4.412;2023-04-29T12:46:50;9.00;;;6.77;;
5937;SDS011;2994;51.220;4.412;2023-04-29T12:49:19;7.53;;;6.80;;
5937;SDS011;2994;51.220;4.412;2023-04-29T12:51:47;9.10;;;8.07;;
5937;SDS011;2994;51.220;4.412;2023-04-29T12:54:13;7.07;;;6.37;;
5937;SDS011;2994;51.220;4.412;2023-04-29T12:56:39;7.30;;;6.17;;
5937;SDS011;2994;51.220;4.412;2023-04-29T12:59:05;8.07;;;7.27;;
5937;SDS011;2994;51.220;4.412;2023-04-29T13:01:32;7.47;;;6.77;;
5937;SDS011;2994;51.220;4.412;2023-04-29T13:03:57;8.50;;;7.50;;
5937;SDS011;2994;51.220;4.412;2023-04-29T13:06:23;9.67;;;8.00;;
5937;SDS011;2994;51.220;4.412;2023-04-29T13:08:48;7.60;;;6.90;;
5937;SDS011;2994;51.220;4.412;2023-04-29T13:11:15;9.10;;;8.17;;
5937;SDS011;2994;51.220;4.412;2023-04-29T13:13:41;7.80;;;6.57;;
5937;SDS011;2994;51.220;4.412;2023-04-29T13:16:06;10.20;;;6.73;;
5937;SDS011;2994;51.220;4.412;2023-04-29T13:18:32;9.07;;;8.20;;
5937;SDS011;2994;51.220;4.412;2023-04-29T13:20:58;8.83;;;7.93;;
5937;SDS011;2994;51.220;4.412;2023-04-29T13:23:23;7.70;;;6.27;;
5937;SDS011;2994;51.220;4.412;2023-04-29T13:25:49;7.73;;;6.93;;
5937;SDS011;2994;51.220;4.412;2023-04-29T13:28:15;7.20;;;6.50;;
5937;SDS011;2994;51.220;4.412;2023-04-29T13:30:41;7.33;;;6.60;;
5937;SDS011;2994;51.220;4.412;2023-04-29T13:33:06;9.30;;;6.23;;
5937;SDS011;2994;51.220;4.412;2023-04-29T13:35:32;6.33;;;5.50;;
5937;SDS011;2994;51.220;4.412;2023-04-29T13:38:00;6.73;;;5.90;;
5937;SDS011;2994;51.220;4.412;2023-04-29T13:40:26;6.80;;;5.90;;
5937;SDS011;2994;51.220;4.412;2023-04-29T13:42:51;5.97;;;5.37;;
5937;SDS011;2994;51.220;4.412;2023-04-29T13:45:17;8.03;;;7.17;;
5937;SDS011;2994;51.220;4.412;2023-04-29T13:47:42;7.17;;;6.10;;
5937;SDS011;2994;51.220;4.412;2023-04-29T13:50:08;7.23;;;6.53;;
5937;SDS011;2994;51.220;4.412;2023-04-29T13:52:34;8.47;;;7.00;;
5937;SDS011;2994;51.220;4.412;2023-04-29T13:54:59;7.30;;;6.00;;
5937;SDS011;2994;51.220;4.412;2023-04-29T13:57:25;7.90;;;7.00;;
5937;SDS011;2994;51.220;4.412;2023-04-29T13:59:51;7.13;;;6.20;;
5937;SDS011;2994;51.220;4.412;2023-04-29T14:02:19;8.17;;;6.47;;
5937;SDS011;2994;51.220;4.412;2023-04-29T14:04:45;7.17;;;6.27;;
5937;SDS011;2994;51.220;4.412;2023-04-29T14:07:10;5.90;;;5.37;;
5937;SDS011;2994;51.220;4.412;2023-04-29T14:09:36;6.87;;;5.77;;
5937;SDS011;2994;51.220;4.412;2023-04-29T14:12:01;5.70;;;5.20;;
5937;SDS011;2994;51.220;4.412;2023-04-29T14:14:26;8.10;;;6.17;;
5937;SDS011;2994;51.220;4.412;2023-04-29T14:16:52;6.37;;;5.77;;
5937;SDS011;2994;51.220;4.412;2023-04-29T14:19:17;5.57;;;5.07;;
5937;SDS011;2994;51.220;4.412;2023-04-29T14:21:43;5.20;;;4.70;;
5937;SDS011;2994;51.220;4.412;2023-04-29T14:24:08;5.90;;;5.33;;
5937;SDS011;2994;51.220;4.412;2023-04-29T14:26:34;7.80;;;5.90;;
5937;SDS011;2994;51.220;4.412;2023-04-29T14:29:01;5.10;;;4.60;;
5937;SDS011;2994;51.220;4.412;2023-04-29T14:31:27;5.63;;;5.13;;
5937;SDS011;2994;51.220;4.412;2023-04-29T14:33:54;7.40;;;6.00;;
5937;SDS011;2994;51.220;4.412;2023-04-29T14:36:20;6.50;;;5.90;;
5937;SDS011;2994;51.220;4.412;2023-04-29T14:38:45;7.97;;;6.40;;
5937;SDS011;2994;51.220;4.412;2023-04-29T14:41:11;7.63;;;5.43;;
5937;SDS011;2994;51.220;4.412;2023-04-29T14:43:36;6.70;;;6.00;;
5937;SDS011;2994;51.220;4.412;2023-04-29T14:46:02;6.13;;;5.53;;
5937;SDS011;2994;51.220;4.412;2023-04-29T14:48:27;5.40;;;4.40;;
5937;SDS011;2994;51.220;4.412;2023-04-29T14:50:53;5.30;;;4.80;;
5937;SDS011;2994;51.220;4.412;2023-04-29T14:53:19;8.03;;;4.80;;
5937;SDS011;2994;51.220;4.412;2023-04-29T14:55:46;5.80;;;4.70;;
5937;SDS011;2994;51.220;4.412;2023-04-29T14:58:13;6.40;;;4.37;;
5937;SDS011;2994;51.220;4.412;2023-04-29T15:00:39;6.13;;;4.37;;
5937;SDS011;2994;51.220;4.412;2023-04-29T15:03:04;6.00;;;5.50;;
5937;SDS011;2994;51.220;4.412;2023-04-29T15:05:30;6.20;;;5.03;;
5937;SDS011;2994;51.220;4.412;2023-04-29T15:07:55;7.77;;;5.20;;
5937;SDS011;2994;51.220;4.412;2023-04-29T15:10:22;4.90;;;4.50;;
5937;SDS011;2994;51.220;4.412;2023-04-29T15:12:48;4.33;;;3.93;;
5937;SDS011;2994;51.220;4.412;2023-04-29T15:15:15;5.33;;;4.20;;
5937;SDS011;2994;51.220;4.412;2023-04-29T15:17:40;5.30;;;4.80;;
5937;SDS011;2994;51.220;4.412;2023-04-29T15:20:06;4.50;;;4.10;;
5937;SDS011;2994;51.220;4.412;2023-04-29T15:22:32;5.20;;;4.70;;
5937;SDS011;2994;51.220;4.412;2023-04-29T15:24:57;5.40;;;4.33;;